Espinoza, Colorado
Current Conditions -  °F | °C
As of 9:52 AM on Sunday 23 Nov 2014 (Local Time) from KALS Reporting Station
Scattered Clouds Scattered Clouds  
Wind Chill: 24°   Ceiling: Unl
Heat Index: 34°   Visibility: 10mi
Dew Point: 16°   Wind: 15mph
Humidity: 48%   Direction: 340°NNW
Pressure: 29.77"   Gusts: NA
Location:  37.1816°N, 106.262°W
Report Text: KALS 231652Z AUTO 34013KT 10SM SCT070 01/M09 A2977 RMK AO2 SLP083 T00111089
Loading
Personal Weather Stations






























Interactive Weather Map New forecast layout! Learn more

10-Day Weather Forecast

Advertisements
Track Severe Weather on mobile